createdAt,value
2023-10-26T00:01:15.460Z,5.10
2023-10-26T00:04:17.649Z,3.97
2023-10-26T00:07:19.741Z,3.30
2023-10-26T00:10:21.827Z,6.63
2023-10-26T00:13:23.876Z,4.03
2023-10-26T00:16:25.932Z,3.53
2023-10-26T00:19:28.035Z,4.77
2023-10-26T00:22:30.295Z,4.33
2023-10-26T00:25:32.301Z,5.20
2023-10-26T00:28:34.355Z,4.45
2023-10-26T00:31:36.475Z,6.68
2023-10-26T00:34:38.537Z,8.07
2023-10-26T00:37:40.597Z,3.60
2023-10-26T00:40:42.745Z,4.25
2023-10-26T00:43:44.892Z,3.17
2023-10-26T00:46:46.921Z,5.60
2023-10-26T00:49:49.234Z,9.63
2023-10-26T00:52:51.316Z,4.63
2023-10-26T00:55:54.069Z,4.07
2023-10-26T00:58:57.759Z,4.40
2023-10-26T01:02:01.836Z,6.05
2023-10-26T01:05:04.886Z,5.53
2023-10-26T01:08:06.990Z,5.07
2023-10-26T01:11:09.538Z,7.80
2023-10-26T01:14:11.604Z,6.05
2023-10-26T01:17:13.910Z,5.57
2023-10-26T01:20:19.503Z,4.03
2023-10-26T01:23:21.792Z,4.28
2023-10-26T01:26:24.143Z,4.88
2023-10-26T01:29:26.248Z,5.32
2023-10-26T01:32:28.359Z,5.37
2023-10-26T01:35:36.229Z,7.50
2023-10-26T01:38:38.486Z,4.80
2023-10-26T01:41:40.521Z,4.97
2023-10-26T01:44:45.324Z,5.07
2023-10-26T01:47:47.862Z,4.83
2023-10-26T01:50:50.124Z,7.40
2023-10-26T01:53:52.377Z,4.82
2023-10-26T01:56:54.494Z,6.85
2023-10-26T01:59:57.313Z,4.63
2023-10-26T02:03:00.232Z,8.03
2023-10-26T02:06:03.726Z,4.28
2023-10-26T02:09:05.883Z,6.43
2023-10-26T02:12:08.289Z,5.82
2023-10-26T02:15:10.886Z,5.00
2023-10-26T02:18:13.634Z,6.27
2023-10-26T02:21:15.946Z,7.93
2023-10-26T02:24:18.229Z,6.35
2023-10-26T02:27:20.435Z,5.30
2023-10-26T02:30:24.133Z,10.57
2023-10-26T02:33:26.509Z,6.13
2023-10-26T02:36:28.693Z,9.43
2023-10-26T02:39:30.824Z,7.82
2023-10-26T02:42:34.475Z,4.80
2023-10-26T02:45:36.595Z,6.33
2023-10-26T02:48:38.796Z,8.18
2023-10-26T02:51:42.168Z,7.45
2023-10-26T02:54:44.533Z,6.40
2023-10-26T02:57:47.067Z,8.07
2023-10-26T03:00:50.528Z,6.03
2023-10-26T03:03:52.860Z,8.00
2023-10-26T03:06:56.248Z,6.78
2023-10-26T03:09:58.412Z,5.53
2023-10-26T03:13:00.503Z,6.97
2023-10-26T03:16:02.528Z,7.53
2023-10-26T03:19:04.565Z,7.95
2023-10-26T03:22:06.653Z,8.38
2023-10-26T03:25:08.879Z,6.47
2023-10-26T03:28:10.957Z,10.38
2023-10-26T03:31:13.513Z,12.85
2023-10-26T03:34:15.608Z,7.93
2023-10-26T03:37:17.887Z,7.57
2023-10-26T03:40:20.262Z,9.88
2023-10-26T03:43:22.297Z,7.43
2023-10-26T03:46:24.355Z,9.38
2023-10-26T03:49:26.458Z,8.33
2023-10-26T03:52:28.557Z,6.80
2023-10-26T03:55:30.618Z,6.50
2023-10-26T03:58:32.707Z,8.30
2023-10-26T04:01:36.765Z,8.50
2023-10-26T04:04:39.610Z,7.53
2023-10-26T04:07:41.619Z,5.97
2023-10-26T04:10:43.989Z,7.28
2023-10-26T04:13:46.077Z,8.90
2023-10-26T04:16:49.129Z,7.23
2023-10-26T04:19:51.389Z,9.63
2023-10-26T04:22:53.588Z,15.38
2023-10-26T04:25:55.712Z,10.00
2023-10-26T04:28:57.875Z,10.23
2023-10-26T04:32:00.004Z,10.93
2023-10-26T04:35:02.241Z,11.50
2023-10-26T04:38:05.721Z,11.32
2023-10-26T04:41:07.829Z,9.95
2023-10-26T04:44:10.086Z,9.90
2023-10-26T04:47:12.257Z,9.23
2023-10-26T04:50:14.347Z,12.45
2023-10-26T04:53:16.520Z,12.23
2023-10-26T04:56:18.665Z,10.53
2023-10-26T04:59:20.683Z,11.43
2023-10-26T05:02:22.786Z,13.23
2023-10-26T05:05:25.028Z,12.45
2023-10-26T05:08:27.231Z,11.83
2023-10-26T05:11:29.280Z,16.03
2023-10-26T05:14:31.311Z,18.02
2023-10-26T05:17:33.505Z,20.08
2023-10-26T05:20:35.706Z,17.80
2023-10-26T05:23:39.082Z,21.47
2023-10-26T05:26:41.240Z,15.77
2023-10-26T05:29:50.097Z,15.35
2023-10-26T05:32:52.644Z,11.80
2023-10-26T05:35:54.746Z,14.55
2023-10-26T05:38:56.905Z,12.37
2023-10-26T05:41:59.424Z,27.45
2023-10-26T05:45:01.502Z,11.23
2023-10-26T05:48:05.183Z,12.70
2023-10-26T05:51:07.661Z,9.50
2023-10-26T05:54:09.906Z,9.70
2023-10-26T05:57:18.009Z,9.35
2023-10-26T06:00:20.371Z,7.95
2023-10-26T06:03:23.110Z,8.82
2023-10-26T06:06:25.431Z,9.50
2023-10-26T06:09:27.656Z,10.82
2023-10-26T06:12:29.937Z,15.48
2023-10-26T06:15:32.107Z,10.18
2023-10-26T06:18:34.360Z,8.98
2023-10-26T06:21:39.177Z,11.60
2023-10-26T06:24:41.372Z,9.77
2023-10-26T06:27:43.496Z,7.75
2023-10-26T06:30:45.662Z,8.80
2023-10-26T06:33:47.849Z,6.77
2023-10-26T06:36:50.332Z,5.43
2023-10-26T06:39:52.415Z,8.23
2023-10-26T06:42:57.035Z,7.15
2023-10-26T06:46:04.442Z,5.32
2023-10-26T06:49:23.055Z,4.93
2023-10-26T06:52:32.147Z,6.33
2023-10-26T06:55:35.089Z,6.07
2023-10-26T06:58:37.251Z,5.65
2023-10-26T07:02:07.569Z,5.97
2023-10-26T07:05:07.108Z,7.80
2023-10-26T07:08:16.039Z,6.97
2023-10-26T07:11:18.341Z,8.40
2023-10-26T07:14:21.102Z,5.93
2023-10-26T07:17:25.335Z,7.60
2023-10-26T07:20:27.451Z,6.30
2023-10-26T07:23:29.791Z,8.20
2023-10-26T07:26:34.027Z,6.32
2023-10-26T07:29:36.431Z,3.42
2023-10-26T07:32:38.977Z,6.97
2023-10-26T07:35:43.769Z,3.80
2023-10-26T07:39:46.609Z,3.27
2023-10-26T07:42:11.377Z,6.88
2023-10-26T07:45:13.766Z,4.65
2023-10-26T07:48:16.957Z,4.05
2023-10-26T07:51:22.810Z,5.77
2023-10-26T07:54:27.042Z,5.17
2023-10-26T07:57:31.254Z,4.40
2023-10-26T08:00:34.198Z,2.63
2023-10-26T08:03:36.474Z,5.63
2023-10-26T08:06:38.681Z,4.17
2023-10-26T08:09:41.598Z,5.63
2023-10-26T08:12:45.097Z,4.90
2023-10-26T08:16:10.532Z,4.03
2023-10-26T08:19:09.829Z,6.25
2023-10-26T08:22:13.944Z,5.47
2023-10-26T08:25:21.396Z,6.93
2023-10-26T08:28:26.020Z,6.28
2023-10-26T08:31:31.388Z,6.40
2023-10-26T08:34:33.984Z,2.58
2023-10-26T08:37:36.769Z,4.57
2023-10-26T08:40:39.292Z,3.77
2023-10-26T08:43:43.160Z,5.10
2023-10-26T08:46:45.800Z,9.50
2023-10-26T08:50:03.416Z,7.15
2023-10-26T08:53:13.555Z,4.17
2023-10-26T08:56:18.179Z,5.17
2023-10-26T08:59:22.346Z,6.80
2023-10-26T09:02:24.806Z,3.28
2023-10-26T09:05:27.590Z,3.53
2023-10-26T09:08:31.673Z,2.93
2023-10-26T09:11:33.793Z,8.07
2023-10-26T09:14:35.915Z,5.95
2023-10-26T09:17:38.331Z,6.25
2023-10-26T09:20:40.797Z,7.68
2023-10-26T09:23:43.539Z,3.33
2023-10-26T09:26:45.690Z,7.27
2023-10-26T09:29:48.600Z,4.88
2023-10-26T09:32:51.309Z,5.18
2023-10-26T09:35:54.480Z,5.97
2023-10-26T09:38:58.025Z,5.73
2023-10-26T09:42:01.721Z,5.13
2023-10-26T09:45:04.298Z,6.10
2023-10-26T09:48:07.050Z,7.00
2023-10-26T09:51:11.887Z,4.20
2023-10-26T09:54:15.142Z,5.80
2023-10-26T09:57:19.680Z,5.07
2023-10-26T10:00:29.126Z,8.10
2023-10-26T10:03:43.954Z,6.32
2023-10-26T10:06:52.553Z,6.15
2023-10-26T10:10:05.577Z,5.97
2023-10-26T10:13:08.532Z,12.00
2023-10-26T10:16:29.780Z,8.30
2023-10-26T10:19:34.444Z,6.18
2023-10-26T10:22:39.985Z,6.80
2023-10-26T10:25:51.200Z,6.27
2023-10-26T10:28:53.878Z,7.67
2023-10-26T10:31:56.003Z,7.18
2023-10-26T10:34:58.981Z,7.40
2023-10-26T10:38:14.032Z,8.70
2023-10-26T10:41:17.255Z,8.00
2023-10-26T10:44:20.114Z,6.00
2023-10-26T10:47:27.986Z,7.93
2023-10-26T10:50:31.458Z,6.32
2023-10-26T10:53:34.240Z,9.27
2023-10-26T10:56:39.759Z,8.03
2023-10-26T10:59:42.244Z,7.80
2023-10-26T11:02:50.498Z,9.18
2023-10-26T11:05:52.842Z,9.07
2023-10-26T11:08:55.008Z,7.63
2023-10-26T11:12:08.632Z,6.57
2023-10-26T11:15:11.552Z,8.33
2023-10-26T11:18:14.184Z,7.78
2023-10-26T11:21:16.953Z,10.45
2023-10-26T11:24:20.101Z,9.10
2023-10-26T11:27:24.383Z,8.63
2023-10-26T11:30:27.514Z,7.30
2023-10-26T11:33:33.785Z,7.32
2023-10-26T11:36:39.025Z,6.20
2023-10-26T11:39:47.582Z,7.35
2023-10-26T11:43:00.892Z,6.27
2023-10-26T11:46:06.642Z,8.27
2023-10-26T11:49:08.865Z,10.57
2023-10-26T11:52:10.985Z,7.00
2023-10-26T11:55:15.546Z,6.10
2023-10-26T11:58:17.964Z,6.43
2023-10-26T12:01:20.101Z,6.17
2023-10-26T12:04:22.328Z,6.03
2023-10-26T12:07:26.231Z,6.95
2023-10-26T12:10:28.924Z,4.93
2023-10-26T12:13:33.285Z,4.40
2023-10-26T12:16:35.616Z,4.87
2023-10-26T12:19:37.976Z,5.47
2023-10-26T12:22:41.047Z,5.70
2023-10-26T12:25:43.581Z,5.07
2023-10-26T12:28:50.602Z,4.83
2023-10-26T12:31:52.720Z,4.13
2023-10-26T12:34:55.038Z,4.18
2023-10-26T12:37:59.938Z,5.95
2023-10-26T12:41:02.718Z,5.07
2023-10-26T12:44:04.990Z,5.33
2023-10-26T12:47:07.970Z,5.33
2023-10-26T12:50:10.570Z,4.93
2023-10-26T12:53:13.979Z,3.22
2023-10-26T12:56:16.405Z,3.53
2023-10-26T12:59:18.726Z,3.57
2023-10-26T13:02:21.038Z,4.87
2023-10-26T13:05:23.179Z,2.83
2023-10-26T13:08:25.410Z,3.00
2023-10-26T13:11:27.477Z,3.30
2023-10-26T13:14:29.526Z,3.00
2023-10-26T13:17:31.940Z,2.67
2023-10-26T13:20:34.362Z,4.13
2023-10-26T13:23:39.962Z,3.20
2023-10-26T13:26:42.094Z,2.95
2023-10-26T13:29:44.729Z,2.80
2023-10-26T13:32:46.908Z,3.23
2023-10-26T13:35:49.001Z,4.40
2023-10-26T13:38:51.166Z,5.57
2023-10-26T13:41:53.351Z,4.28
2023-10-26T13:44:56.000Z,2.70
2023-10-26T13:48:00.847Z,4.87
2023-10-26T13:51:03.067Z,2.65
2023-10-26T13:54:05.306Z,3.10
2023-10-26T13:57:07.494Z,2.40
2023-10-26T14:00:10.054Z,3.10
2023-10-26T14:03:15.512Z,2.80
2023-10-26T14:06:17.913Z,3.35
2023-10-26T14:09:20.121Z,3.75
2023-10-26T14:12:22.242Z,2.60
2023-10-26T14:15:24.413Z,2.47
2023-10-26T14:18:26.610Z,2.87
2023-10-26T14:21:28.675Z,3.13
2023-10-26T14:24:30.793Z,3.70
2023-10-26T14:27:33.001Z,4.38
2023-10-26T14:30:35.868Z,3.80
2023-10-26T14:33:37.979Z,4.20
2023-10-26T14:36:40.099Z,4.50
2023-10-26T14:39:42.231Z,3.40
2023-10-26T14:42:44.435Z,3.67
2023-10-26T14:45:46.582Z,3.00
2023-10-26T14:48:48.798Z,3.67
2023-10-26T14:51:51.226Z,6.50
2023-10-26T14:54:53.484Z,3.17
2023-10-26T14:57:55.782Z,6.10
2023-10-26T15:00:58.353Z,9.87
2023-10-26T15:04:01.308Z,9.77
2023-10-26T15:07:03.604Z,10.07
2023-10-26T15:10:23.447Z,8.80
2023-10-26T15:13:27.891Z,8.00
2023-10-26T15:16:31.948Z,8.40
2023-10-26T15:19:35.123Z,10.37
2023-10-26T15:22:37.529Z,16.63
2023-10-26T15:25:39.641Z,25.55
2023-10-26T15:28:41.901Z,13.00
2023-10-26T15:31:48.422Z,10.23
2023-10-26T15:34:50.626Z,11.70
2023-10-26T15:37:52.746Z,14.27
2023-10-26T15:41:06.135Z,18.20
2023-10-26T15:44:08.470Z,25.75
2023-10-26T15:47:10.709Z,22.30
2023-10-26T15:50:12.994Z,20.57
2023-10-26T15:53:16.074Z,19.05
2023-10-26T15:56:18.173Z,17.50
2023-10-26T15:59:20.274Z,15.98
2023-10-26T16:02:22.705Z,14.53
2023-10-26T16:05:24.857Z,26.83
2023-10-26T16:08:26.888Z,20.88
2023-10-26T16:11:29.511Z,22.00
2023-10-26T16:14:31.855Z,39.30
2023-10-26T16:17:37.730Z,48.13
2023-10-26T16:20:39.891Z,40.30
2023-10-26T16:23:42.206Z,42.78
2023-10-26T16:26:44.273Z,54.47
2023-10-26T16:29:47.802Z,86.95
2023-10-26T16:32:50.035Z,56.70
2023-10-26T16:35:52.389Z,52.93
2023-10-26T16:38:54.526Z,41.30
2023-10-26T16:41:58.557Z,38.83
2023-10-26T16:45:01.312Z,51.95
2023-10-26T16:48:03.873Z,47.97
2023-10-26T16:51:09.197Z,61.37
2023-10-26T16:54:11.405Z,70.28
2023-10-26T16:57:16.159Z,44.45
2023-10-26T17:00:19.071Z,93.20
2023-10-26T17:03:21.204Z,81.53
2023-10-26T17:06:23.291Z,65.07
2023-10-26T17:09:25.504Z,59.05
2023-10-26T17:12:27.985Z,64.88
2023-10-26T17:15:30.058Z,77.22
2023-10-26T17:18:32.077Z,54.37
2023-10-26T17:21:34.138Z,62.60
2023-10-26T17:24:37.336Z,50.90
2023-10-26T17:27:39.618Z,40.75
2023-10-26T17:30:41.807Z,46.92
2023-10-26T17:33:43.935Z,33.50
2023-10-26T17:36:46.174Z,33.10
2023-10-26T17:39:49.435Z,41.22
2023-10-26T17:42:53.245Z,47.40
2023-10-26T17:45:55.746Z,40.20
2023-10-26T17:48:58.288Z,29.57
2023-10-26T17:52:00.504Z,20.90
2023-10-26T17:55:03.833Z,17.13
2023-10-26T17:58:06.317Z,13.40
2023-10-26T18:01:10.423Z,12.98
2023-10-26T18:04:12.567Z,8.40
2023-10-26T18:07:16.104Z,9.55
2023-10-26T18:10:21.098Z,7.13
2023-10-26T18:13:23.476Z,9.15
2023-10-26T18:16:25.622Z,10.57
2023-10-26T18:19:28.150Z,15.33
2023-10-26T18:22:30.243Z,10.85
2023-10-26T18:25:32.275Z,13.90
2023-10-26T18:28:34.912Z,13.63
2023-10-26T18:31:37.112Z,11.60
2023-10-26T18:34:39.186Z,12.20
2023-10-26T18:37:42.838Z,10.27
2023-10-26T18:40:44.907Z,14.75
2023-10-26T18:43:49.883Z,16.05
2023-10-26T18:46:52.039Z,37.03
2023-10-26T18:49:54.075Z,11.33
2023-10-26T18:52:56.224Z,12.90
2023-10-26T18:55:58.732Z,34.75
2023-10-26T18:59:00.829Z,15.77
2023-10-26T19:02:03.833Z,3.92
2023-10-26T19:05:09.732Z,10.10
2023-10-26T19:08:11.972Z,7.97
2023-10-26T19:11:14.126Z,7.93
2023-10-26T19:14:16.178Z,9.88
2023-10-26T19:17:18.274Z,9.15
2023-10-26T19:20:21.698Z,8.13
2023-10-26T19:23:23.791Z,6.07
2023-10-26T19:26:25.894Z,10.25
2023-10-26T19:29:28.209Z,12.95
2023-10-26T19:32:30.532Z,13.50
2023-10-26T19:35:32.636Z,14.43
2023-10-26T19:38:34.772Z,16.35
2023-10-26T19:41:36.807Z,12.98
2023-10-26T19:44:38.898Z,16.65
2023-10-26T19:47:41.500Z,33.00
2023-10-26T19:50:43.546Z,35.60
2023-10-26T19:53:48.477Z,40.25
2023-10-26T19:56:50.582Z,25.42
2023-10-26T19:59:52.814Z,17.17
2023-10-26T20:02:55.044Z,18.10
2023-10-26T20:05:57.168Z,14.20
2023-10-26T20:08:59.192Z,12.23
2023-10-26T20:12:01.687Z,17.92
2023-10-26T20:15:04.269Z,19.67
2023-10-26T20:18:08.575Z,16.38
2023-10-26T20:21:10.745Z,22.67
2023-10-26T20:24:13.102Z,23.55
2023-10-26T20:27:16.747Z,31.90
2023-10-26T20:30:20.232Z,32.50
2023-10-26T20:33:22.569Z,35.50
2023-10-26T20:36:25.103Z,26.07
2023-10-26T20:39:27.128Z,40.13
2023-10-26T20:42:29.150Z,34.70
2023-10-26T20:45:31.812Z,19.90
2023-10-26T20:48:35.141Z,16.00
2023-10-26T20:51:38.971Z,15.60
2023-10-26T20:54:41.043Z,17.27
2023-10-26T20:57:43.135Z,21.13
2023-10-26T21:00:45.396Z,20.63
2023-10-26T21:03:47.537Z,18.37
2023-10-26T21:06:49.688Z,16.23
2023-10-26T21:09:51.798Z,16.20
2023-10-26T21:12:54.074Z,20.75
2023-10-26T21:15:56.686Z,14.07
2023-10-26T21:18:58.877Z,16.50
2023-10-26T21:22:03.346Z,16.67
2023-10-26T21:25:09.125Z,18.77
2023-10-26T21:28:11.797Z,12.23
2023-10-26T21:31:13.932Z,13.52
2023-10-26T21:34:16.144Z,12.33
2023-10-26T21:37:18.256Z,14.00
2023-10-26T21:40:20.387Z,15.10
2023-10-26T21:43:22.639Z,16.65
2023-10-26T21:46:24.785Z,14.63
2023-10-26T21:49:26.937Z,24.13
2023-10-26T21:52:28.984Z,14.63
2023-10-26T21:55:31.241Z,16.02
2023-10-26T21:58:33.557Z,12.40
2023-10-26T22:01:35.671Z,13.18
2023-10-26T22:04:37.798Z,15.93
2023-10-26T22:07:39.940Z,13.43
2023-10-26T22:10:41.953Z,14.98
2023-10-26T22:13:44.059Z,11.98
2023-10-26T22:16:46.127Z,14.68
2023-10-26T22:19:51.656Z,13.10
2023-10-26T22:22:53.969Z,10.38
2023-10-26T22:26:02.620Z,11.88
2023-10-26T22:29:06.169Z,11.38
2023-10-26T22:32:12.094Z,10.43
2023-10-26T22:35:14.191Z,13.30
2023-10-26T22:38:16.281Z,14.05
2023-10-26T22:41:18.327Z,13.43
2023-10-26T22:44:20.879Z,16.58
2023-10-26T22:47:23.503Z,11.10
2023-10-26T22:50:25.679Z,12.97
2023-10-26T22:53:27.816Z,9.07
2023-10-26T22:56:29.946Z,11.00
2023-10-26T22:59:32.009Z,9.43
2023-10-26T23:02:34.043Z,9.88
2023-10-26T23:05:42.044Z,10.07
2023-10-26T23:08:44.372Z,11.48
2023-10-26T23:11:46.566Z,8.75
2023-10-26T23:14:48.670Z,10.95
2023-10-26T23:17:51.462Z,9.90
2023-10-26T23:20:53.618Z,7.93
2023-10-26T23:23:55.955Z,7.60
2023-10-26T23:26:58.037Z,7.70
2023-10-26T23:30:02.958Z,6.97
2023-10-26T23:33:05.118Z,10.50
2023-10-26T23:36:08.024Z,7.40
2023-10-26T23:39:10.066Z,6.72
2023-10-26T23:42:12.145Z,8.68
2023-10-26T23:45:14.198Z,7.88
2023-10-26T23:48:16.238Z,9.20
2023-10-26T23:51:19.070Z,7.37
2023-10-26T23:54:22.668Z,6.43
2023-10-26T23:57:24.805Z,6.25
